Sumterville, FL

7:52 PM EDT on June 02, 2015 (GMT -0400)
SB Farms | | Change Station
CLOSE
Current Station
Personal Weather Station
Location: Center Hill, FL
Elevation: 118 ft
Nearby Weather Stations

Elev 118 ft 28.68 °N, 82.01 °W | Updated 36 seconds ago

Rain
Rain
68.2 °F
Feels Like 68.2 °F
N
0.0
Wind Variable Wind from SSE
Gusts 7.0 mph

Today
High -- | Low -- °F
--% Chance of Precip.
Yesterday
High -- | Low -- °F
Precip. -- in
6:30 AM 8:22 PM
Full, 100% visible
Pressure 30.03 in
Visibility 5.0 miles
Clouds Few 1200 ft
Mostly Cloudy 7000 ft
Overcast 8000 ft
Dew Point 67 °F
Humidity 96%
Rainfall 2.13 in
Snow Depth Not available.
UV 0 out of 12
Pollen .60 out of 12
Air Quality Not available.
Flu Activity Sporadic
SPECI KLEE 022343Z AUTO 22006KT 5SM -RA BR FEW012 BKN070 OVC080 21/20 A3003 RMK AO2 LTG DSNT N AND NW P0045 T02110200

More Conditions Fewer Conditions

Pressure 30.03 in
Visibility 5.0 miles
Clouds Few 1200 ft
Mostly Cloudy 7000 ft
Overcast 8000 ft
Dew Point 67 °F
Humidity 96%
Rainfall 2.13 in
Snow Depth Not available.
UV 0 out of 12
Pollen .60 out of 12
Air Quality Not available.
Flu Activity Sporadic
SPECI KLEE 022343Z AUTO 22006KT 5SM -RA BR FEW012 BKN070 OVC080 21/20 A3003 RMK AO2 LTG DSNT N AND NW P0045 T02110200

More Conditions Fewer Conditions

10-Day Weather Forecast

×

Almanac

Astronomy

Jun. 02, 2015 Rise Set
Actual Time
Civil Twilight
Nautical Twilight
Astronomical Twilight
Moon
Length of Visible Light
Length of Day
Tomorrow will be .
, % of the Moon is Illuminated

Today's Extremes

State Highs State Lows

Community

WunderPhotos

Upload Photos

1,826,057 photos uploaded!

WunderBlogs® & News

Nearby

Air Quality

  Air Quality AQ Index Pollutant
Not available.

Snow Depth

Station Depth Elevation

Earthquake Activity

City Distance Mag. Time & Date
Minimum magnitude displayed is 2.5.

Coastal Water Temperatures

Place Temperature

Stations

Nearby Weather Stations

Station Location Temp. Windchill Dew Point Humidity Wind Precip. Elev Updated Type